Terminal Aerodrome Forecast
Issued by NWS

Home | Current Version | Previous Version | Text Only | Print | Product List | Glossary On
Versions: 1 2 3 4 5 6 7 8 9 10 11 12 13 14 15 16 17 18 19 20 21
000
FTUS44 KMAF 281737 AAA
TAFCNM
TAF AMD
KCNM 281737Z 2818/2918 24020G30KT P6SM SCT080 SCT250
     FM290100 27017KT P6SM FEW070 BKN200
     FM291300 30021KT P6SM OVC250
     FM291600 31025G35KT P6SM SCT050 OVC250=

USA.gov is the U.S. government's official web portal to all federal, state and local government web resources and services.